Report METAR

 

LIPX - Villafranca(Cv/M, Italy
Distanza dalla stazione: S 60km
Dati ricevuti: Wed, 12/08/2020 04:20
Sereno
Sereno
 Vento da SSO
Vento: SSO 7 km/h
Temperatura: 22°C
Punto Rugiada: 19°C
Umidità: 83%
Barometro: 1015 hPa
Nuvole: Sereno
VisibilitÓ: 10 km
2020/08/12 02:20 LIPX 120220Z AUTO 21004KT 9999 NCD 22/19 Q1015
LIPB - Bolzano(Civ/It-A, Italy
Distanza dalla stazione: NNE 68km
Dati ricevuti: Tue, 11/08/2020 22:50
DATI Obsoleti
Parz. nuvoloso
Parz. nuvoloso
 Vento da Variabile
Vento: Variabile 9 km/h
Temperatura: 26°C
Punto Rugiada: 14°C
Umidità: 48%
Barometro: 1017 hPa
Nuvole: Parz. nuvoloso
VisibilitÓ: 10 km
Dettaglio nuvole: Parz. nuvoloso 3048 m
2020/08/11 20:50 LIPB 112050Z VRB05KT 9999 SCT100 26/14 Q1017
 
LIPO - Brescia/Montichi, Italy
Distanza dalla stazione: SO 71km
Dati ricevuti: Tue, 11/08/2020 21:20
DATI Obsoleti
Poche nubi
Poche nubi
 Vento da Variabile
Vento: Variabile 4 km/h
Temperatura: 28°C
Indice di Calore: 29°C
Punto Rugiada: 20°C
Umidità: 62%
Barometro: 1015 hPa
Nuvole: Poche nubi
VisibilitÓ: 10 km
Dettaglio nuvole: Poche nubi 4572 m
2020/08/11 19:20 LIPO 111920Z AUTO VRB02KT 9999 FEW150/// 28/20 Q1015
LIPL - Ghedi (it-Afb), Italy
Distanza dalla stazione: SO 75km
Dati ricevuti: Wed, 12/08/2020 03:55
Sereno
Sereno
 Vento da SE
Vento: SE 6 km/h
Temperatura: 23°C
Punto Rugiada: 20°C
Umidità: 83%
Barometro: 1015 hPa
Sommario: Sereno
VisibilitÓ: superiore a 10 km
2020/08/12 01:55 LIPL 120155Z 14003KT CAVOK 23/20 Q1015 RMK FEW FEW200 VIS MIN 9999 WIND THR31 12002KT WIND THR13 12002KT BLU
 
LIVR - Rolle Pass, Italy
Distanza dalla stazione: ENE 78km
Dati ricevuti: Tue, 11/08/2020 16:55
DATI Obsoleti
Parz. nuvoloso
Parz. nuvoloso
 Vento da SE
Vento: SE 13 km/h
Temperatura: 19°C
Punto Rugiada: -30°C
Umidità: 2%
Barometro: 1026 hPa
Nuvole: Parz. nuvoloso
VisibilitÓ: 10 km
Dettaglio nuvole: Parz. nuvoloso 914 m
2020/08/11 14:55 LIVR 111455Z 14007KT 9999 SCT030 19/M30 Q1026 RETS RMK SCT MON CLD SCT VIS MIN 9999
LIPS - Istrana (it-Afb), Italy
Distanza dalla stazione: ESE 96km
Dati ricevuti: Wed, 12/08/2020 03:55
Parz. nuvoloso
Parz. nuvoloso
 Vento da ENE
Vento: ENE 6 km/h
Temperatura: 23°C
Punto Rugiada: 22°C
Umidità: 94%
Barometro: 1015 hPa
Nuvole: Parz. nuvoloso
VisibilitÓ: 10 km
Dettaglio nuvole: Parz. nuvoloso 2134 m
2020/08/12 01:55 LIPS 120155Z 06003KT 9999 SCT070 23/22 Q1015 RMK BKN VIS MIN 9999 WIND THR26 06003KT WIND THR08 06003KT BLU
 
LIME - Bergamo/Orio Ser, Italy
Distanza dalla stazione: OSO 99km
Dati ricevuti: Wed, 12/08/2020 04:20
Sereno
Sereno
 Vento da N
Vento: N 9 km/h
Temperatura: 22°C
Punto Rugiada: 17°C
Umidità: 73%
Barometro: 1017 hPa
Sommario: Sereno
VisibilitÓ: superiore a 10 km
2020/08/12 02:20 LIME 120220Z 01005KT CAVOK 22/17 Q1017 NOSIG
LIPH - Treviso(Civ/It-A, Italy
Distanza dalla stazione: ESE 103km
Dati ricevuti: Wed, 12/08/2020 04:20
Sereno
Sereno
 Vento da Variabile
Vento: Variabile 4 km/h
Temperatura: 22°C
Punto Rugiada: 20°C
Umidità: 88%
Barometro: 1015 hPa
Nuvole: Sereno
VisibilitÓ: 10 km
2020/08/12 02:20 LIPH 120220Z AUTO VRB02KT 9999 NCD 22/20 Q1015
 
LSZS - Samedan, Switzerland
Distanza dalla stazione: NO 104km
Dati ricevuti: Wed, 12/08/2020 04:20
Sereno
Sereno
 Vento da Variabile
Vento: Variabile 4 km/h
Temperatura: 9°C
Punto Rugiada: 9°C
Umidità: 100%
Barometro: 1025 hPa
Sommario: Sereno
VisibilitÓ: superiore a 10 km
2020/08/12 02:20 LSZS 120220Z AUTO VRB02KT CAVOK 09/09 Q1025
LIVE - Resia Pass, Italy
Distanza dalla stazione: NNO 108km
Dati ricevuti: Wed, 12/08/2020 03:55
Sereno
Sereno
 Vento da calmo
Vento: Calma
Temperatura: 14°C
Punto Rugiada: 12°C
Umidità: 88%
Barometro: 1025 hPa
Sommario: Sereno
VisibilitÓ: superiore a 10 km
2020/08/12 01:55 LIVE 120155Z 00000KT CAVOK 14/12 Q1025 RMK SKC VIS MIN 9999
 
LIPZ - Venezia/Tessera, Italy
Distanza dalla stazione: ESE 122km
Dati ricevuti: Wed, 12/08/2020 04:20
Sereno
Sereno
 Vento da NNO
Vento: NNO 7 km/h
Temperatura: 22°C
Punto Rugiada: 20°C
Umidità: 88%
Barometro: 1015 hPa
Sommario: Sereno
VisibilitÓ: superiore a 10 km
2020/08/12 02:20 LIPZ 120220Z 34004KT CAVOK 22/20 Q1015 NOSIG
LIMP - Parma, Italy
Distanza dalla stazione: SSO 132km
Dati ricevuti: Tue, 11/08/2020 19:50
DATI Obsoleti
Sereno
Sereno
 Vento da S
Vento: S 7 km/h
Temperatura: 32°C
Indice di Calore: 33°C
Punto Rugiada: 18°C
Umidità: 43%
Barometro: 1014 hPa
Sommario: Sereno
VisibilitÓ: superiore a 10 km
2020/08/11 17:50 LIMP 111750Z 19004KT CAVOK 32/18 Q1014
 
LIVD - Dobbiaco, Italy
Distanza dalla stazione: NE 134km
Dati ricevuti: Tue, 11/08/2020 19:55
DATI Obsoleti
Molto nuvoloso
Molto nuvoloso
 Vento da Variabile
Vento: Variabile 0 km/h
Temperatura: 20°C
Punto Rugiada: 18°C
Umidità: 88%
Barometro: 1022 hPa
Nuvole: Molto nuvoloso
VisibilitÓ: 10 km
Dettaglio nuvole: Molto nuvoloso 914 m
2020/08/11 17:55 LIVD 111755Z /////KT 9999 BKN030 20/18 Q1022 RESNGSRA RMK BKN VIS MIN 9999 BLU
LIPF - Ferrara (aut), Italy
Distanza dalla stazione: SSE 135km
Dati ricevuti: Tue, 11/08/2020 19:55
DATI Obsoleti
Sereno
Sereno
 Vento da Variabile
Vento: Variabile 0 km/h
Temperatura: 30°C
Indice di Calore: 31°C
Punto Rugiada: 18°C
Umidità: 49%
Barometro: 1014 hPa
Sommario: Sereno
VisibilitÓ: superiore a 10 km
2020/08/11 17:55 LIPF 111755Z /////KT CAVOK 30/18 Q1014
 
LIML - Milano/Linate, Italy
Distanza dalla stazione: OSO 137km
Dati ricevuti: Wed, 12/08/2020 04:20
Sereno
Sereno
 Vento da ESE
Vento: ESE 6 km/h
Temperatura: 24°C
Punto Rugiada: 20°C
Umidità: 78%
Barometro: 1016 hPa
Nuvole: Sereno
VisibilitÓ: 10 km
2020/08/12 02:20 LIML 120220Z AUTO 12003KT 080V140 9999 NCD 24/20 Q1016
LIMS - Piacenza (it-Afb, Italy
Distanza dalla stazione: SO 145km
Dati ricevuti: Tue, 11/08/2020 19:55
DATI Obsoleti
Sereno
Sereno
 Vento da O
Vento: O 15 km/h
Temperatura: 29°C
Indice di Calore: 31°C
Punto Rugiada: 20°C
Umidità: 58%
Barometro: 1014 hPa
Sommario: Sereno
VisibilitÓ: superiore a 10 km
2020/08/11 17:55 LIMS 111755Z 27008KT CAVOK 29/20 Q1014